createdAt,value
2017-11-13T00:00:54.592Z,29.60
2017-11-13T00:03:21.646Z,25.30
2017-11-13T00:05:47.953Z,28.73
2017-11-13T00:08:14.257Z,29.73
2017-11-13T00:10:40.530Z,27.63
2017-11-13T00:13:07.611Z,30.23
2017-11-13T00:15:33.912Z,25.27
2017-11-13T00:18:00.480Z,27.37
2017-11-13T00:20:26.831Z,24.70
2017-11-13T00:22:53.140Z,28.10
2017-11-13T00:25:19.432Z,27.40
2017-11-13T00:27:46.476Z,23.30
2017-11-13T00:30:13.536Z,23.97
2017-11-13T00:32:39.840Z,25.27
2017-11-13T00:35:06.147Z,23.33
2017-11-13T00:37:32.432Z,21.40
2017-11-13T00:39:58.731Z,22.93
2017-11-13T00:42:25.048Z,23.90
2017-11-13T00:44:51.332Z,24.13
2017-11-13T00:47:17.637Z,22.87
2017-11-13T00:49:44.663Z,20.87
2017-11-13T00:52:10.962Z,23.10
2017-11-13T00:54:37.241Z,21.27
2017-11-13T00:57:04.288Z,22.20
2017-11-13T00:59:31.321Z,19.50
2017-11-13T01:01:57.617Z,20.50
2017-11-13T01:04:23.886Z,25.00
2017-11-13T01:06:50.932Z,19.83
2017-11-13T01:09:18.690Z,22.90
2017-11-13T01:11:44.981Z,20.60
2017-11-13T01:14:11.284Z,20.00
2017-11-13T01:16:38.315Z,24.87
2017-11-13T01:19:05.364Z,21.27
2017-11-13T01:21:31.669Z,21.00
2017-11-13T01:23:57.970Z,22.27
2017-11-13T01:26:24.767Z,21.27
2017-11-13T01:28:51.812Z,20.20
2017-11-13T01:31:18.902Z,23.00
2017-11-13T01:33:45.273Z,21.03
2017-11-13T01:36:12.326Z,23.43
2017-11-13T01:38:38.652Z,20.23
2017-11-13T01:41:04.957Z,24.57
2017-11-13T01:43:31.291Z,21.93
2017-11-13T01:45:57.612Z,22.83
2017-11-13T01:48:23.950Z,22.47
2017-11-13T01:50:50.300Z,23.63
2017-11-13T01:53:16.620Z,23.27
2017-11-13T01:55:42.934Z,25.80
2017-11-13T01:58:09.254Z,23.60
2017-11-13T02:00:35.573Z,24.17
2017-11-13T02:03:01.923Z,25.20
2017-11-13T02:05:28.249Z,29.03
2017-11-13T02:07:54.622Z,24.40
2017-11-13T02:10:20.951Z,23.30
2017-11-13T02:12:48.432Z,24.13
2017-11-13T02:15:17.465Z,22.33
2017-11-13T02:17:44.648Z,28.67
2017-11-13T02:20:11.728Z,25.17
2017-11-13T02:22:38.081Z,31.40
2017-11-13T02:25:04.438Z,29.73
2017-11-13T02:27:30.783Z,28.00
2017-11-13T02:29:57.856Z,32.73
2017-11-13T02:32:24.199Z,28.07
2017-11-13T02:34:50.524Z,27.37
2017-11-13T02:37:16.846Z,29.87
2017-11-13T02:39:43.190Z,28.23
2017-11-13T02:42:09.542Z,32.23
2017-11-13T02:44:35.895Z,27.67
2017-11-13T02:47:02.234Z,29.03
2017-11-13T02:49:28.554Z,26.40
2017-11-13T02:51:56.351Z,34.00
2017-11-13T02:54:23.420Z,34.17
2017-11-13T02:56:49.735Z,31.23
2017-11-13T02:59:16.061Z,30.63
2017-11-13T03:01:43.132Z,31.50
2017-11-13T03:04:16.336Z,31.33
2017-11-13T03:06:42.655Z,31.27
2017-11-13T03:09:09.001Z,30.87
2017-11-13T03:11:35.311Z,31.63
2017-11-13T03:14:02.369Z,32.50
2017-11-13T03:16:28.682Z,29.83
2017-11-13T03:18:55.015Z,27.53
2017-11-13T03:21:21.332Z,24.33
2017-11-13T03:23:48.418Z,24.63
2017-11-13T03:26:14.722Z,27.77
2017-11-13T03:28:41.794Z,30.90
2017-11-13T03:31:08.432Z,25.77
2017-11-13T03:33:34.756Z,24.97
2017-11-13T03:36:01.059Z,27.67
2017-11-13T03:38:28.107Z,32.47
2017-11-13T03:40:55.137Z,32.47
2017-11-13T03:43:21.455Z,29.27
2017-11-13T03:45:47.739Z,32.10
2017-11-13T03:48:14.840Z,31.20
2017-11-13T03:50:41.135Z,33.60
2017-11-13T03:53:07.438Z,34.93
2017-11-13T03:55:33.735Z,30.93
2017-11-13T03:58:00.025Z,34.13
2017-11-13T04:00:26.455Z,34.90
2017-11-13T04:02:52.741Z,33.70
2017-11-13T04:05:19.793Z,37.93
2017-11-13T04:07:46.828Z,30.00
2017-11-13T04:10:13.875Z,34.20
2017-11-13T04:12:40.904Z,33.37
2017-11-13T04:15:07.194Z,37.20
2017-11-13T04:17:33.487Z,31.47
2017-11-13T04:20:00.555Z,32.17
2017-11-13T04:22:26.899Z,35.00
2017-11-13T04:24:53.208Z,33.80
2017-11-13T04:27:19.491Z,42.37
2017-11-13T04:29:45.815Z,44.23
2017-11-13T04:32:12.149Z,36.07
2017-11-13T04:34:38.454Z,40.63
2017-11-13T04:37:04.736Z,42.73
2017-11-13T04:39:31.814Z,39.73
2017-11-13T04:41:58.131Z,35.67
2017-11-13T04:44:24.441Z,39.77
2017-11-13T04:46:51.477Z,47.73
2017-11-13T04:49:17.759Z,41.10
2017-11-13T04:51:44.049Z,34.83
2017-11-13T04:54:11.082Z,48.57
2017-11-13T04:56:38.142Z,42.80
2017-11-13T04:59:04.424Z,44.53
2017-11-13T05:01:30.760Z,46.57
2017-11-13T05:03:57.084Z,38.23
2017-11-13T05:06:23.399Z,38.10
2017-11-13T05:08:49.732Z,43.60
2017-11-13T05:11:16.077Z,39.13
2017-11-13T05:13:42.385Z,37.10
2017-11-13T05:16:08.718Z,31.60
2017-11-13T05:18:35.063Z,34.33
2017-11-13T05:21:01.418Z,31.70
2017-11-13T05:23:27.745Z,30.40
2017-11-13T05:25:54.049Z,41.00
2017-11-13T05:28:20.368Z,40.23
2017-11-13T05:30:46.666Z,33.03
2017-11-13T05:33:13.707Z,33.63
2017-11-13T05:35:39.995Z,37.60
2017-11-13T05:38:06.293Z,39.83
2017-11-13T05:40:32.593Z,35.07
2017-11-13T05:42:59.643Z,36.63
2017-11-13T05:45:25.936Z,34.83
2017-11-13T05:47:52.231Z,38.23
2017-11-13T05:50:18.523Z,36.40
2017-11-13T05:52:46.316Z,32.97
2017-11-13T05:55:12.692Z,37.00
2017-11-13T05:57:38.997Z,44.20
2017-11-13T06:00:05.318Z,33.77
2017-11-13T06:02:31.627Z,31.13
2017-11-13T06:04:58.654Z,34.03
2017-11-13T06:07:24.963Z,40.77
2017-11-13T06:09:51.242Z,51.70
2017-11-13T06:12:18.290Z,52.27
2017-11-13T06:14:44.592Z,40.23
2017-11-13T06:17:10.890Z,31.07
2017-11-13T06:19:37.194Z,54.67
2017-11-13T06:22:03.490Z,42.30
2017-11-13T06:24:30.552Z,43.60
2017-11-13T06:26:57.584Z,42.53
2017-11-13T06:29:23.880Z,43.63
2017-11-13T06:31:50.168Z,43.07
2017-11-13T06:34:16.459Z,31.13
2017-11-13T06:36:42.837Z,41.00
2017-11-13T06:39:09.154Z,47.43
2017-11-13T06:41:36.263Z,44.13
2017-11-13T06:44:02.566Z,35.10
2017-11-13T06:46:28.846Z,45.17
2017-11-13T06:48:56.007Z,41.70
2017-11-13T06:51:23.040Z,37.80
2017-11-13T06:53:49.359Z,43.53
2017-11-13T06:56:16.466Z,73.30
2017-11-13T06:58:42.768Z,49.23
2017-11-13T07:01:09.162Z,40.93
2017-11-13T07:03:35.493Z,70.23
2017-11-13T07:06:01.832Z,43.80
2017-11-13T07:08:29.013Z,37.23
2017-11-13T07:10:55.359Z,34.50
2017-11-13T07:13:21.695Z,33.03
2017-11-13T07:15:48.030Z,28.63
2017-11-13T07:18:14.380Z,39.30
2017-11-13T07:20:40.763Z,38.73
2017-11-13T07:23:07.141Z,26.80
2017-11-13T07:25:33.580Z,65.10
2017-11-13T07:27:59.887Z,43.40
2017-11-13T07:30:26.264Z,43.13
2017-11-13T07:32:52.771Z,55.33
2017-11-13T07:35:19.115Z,35.70
2017-11-13T07:37:45.489Z,23.70
2017-11-13T07:40:11.836Z,37.60
2017-11-13T07:42:38.246Z,38.47
2017-11-13T07:45:04.625Z,58.80
2017-11-13T07:47:30.988Z,40.03
2017-11-13T07:49:58.063Z,59.73
2017-11-13T07:52:24.437Z,31.07
2017-11-13T07:54:50.782Z,49.33
2017-11-13T07:57:17.107Z,27.70
2017-11-13T07:59:43.450Z,77.83
2017-11-13T08:02:10.579Z,57.33
2017-11-13T08:04:38.548Z,23.20
2017-11-13T08:07:05.799Z,36.33
2017-11-13T08:09:32.236Z,39.03
2017-11-13T08:11:58.555Z,24.37
2017-11-13T08:14:24.867Z,39.13
2017-11-13T08:16:51.217Z,31.20
2017-11-13T08:19:17.573Z,45.57
2017-11-13T08:21:43.938Z,70.50
2017-11-13T08:24:10.294Z,47.67
2017-11-13T08:26:36.651Z,45.67
2017-11-13T08:29:03.192Z,31.43
2017-11-13T08:31:30.417Z,51.53
2017-11-13T08:33:57.614Z,73.10
2017-11-13T08:36:24.043Z,76.27
2017-11-13T08:38:50.428Z,54.93
2017-11-13T08:41:16.812Z,64.83
2017-11-13T08:43:44.029Z,40.23
2017-11-13T08:46:11.155Z,36.80
2017-11-13T08:48:37.519Z,58.97
2017-11-13T08:51:04.684Z,44.43
2017-11-13T08:53:31.195Z,30.40
2017-11-13T08:55:57.602Z,37.40
2017-11-13T08:58:24.758Z,22.93
2017-11-13T09:00:51.259Z,31.10
2017-11-13T09:03:17.700Z,22.27
2017-11-13T09:05:44.180Z,23.70
2017-11-13T09:08:10.633Z,23.57
2017-11-13T09:10:36.989Z,25.43
2017-11-13T09:13:03.343Z,20.80
2017-11-13T09:15:29.748Z,22.03
2017-11-13T09:17:56.828Z,21.83
2017-11-13T09:20:23.376Z,29.70
2017-11-13T09:22:50.484Z,21.60
2017-11-13T09:25:16.866Z,19.33
2017-11-13T09:27:43.230Z,23.23
2017-11-13T09:30:09.630Z,22.10
2017-11-13T09:32:35.987Z,20.40
2017-11-13T09:35:03.083Z,19.40
2017-11-13T09:37:29.482Z,22.37
2017-11-13T09:39:55.980Z,20.53
2017-11-13T09:42:22.612Z,21.17
2017-11-13T09:44:48.952Z,20.73
2017-11-13T09:47:15.306Z,22.53
2017-11-13T09:49:41.760Z,20.27
2017-11-13T09:52:08.145Z,20.43
2017-11-13T09:54:34.518Z,19.83
2017-11-13T09:57:00.895Z,20.03
2017-11-13T09:59:28.723Z,17.63
2017-11-13T10:01:55.261Z,19.23
2017-11-13T10:04:21.611Z,18.50
2017-11-13T10:06:48.001Z,14.40
2017-11-13T10:09:14.392Z,16.27
2017-11-13T10:11:42.328Z,15.30
2017-11-13T10:14:08.747Z,12.77
2017-11-13T10:16:35.156Z,14.67
2017-11-13T10:19:02.385Z,15.57
2017-11-13T10:21:28.814Z,12.87
2017-11-13T10:23:55.211Z,13.30
2017-11-13T10:26:22.605Z,11.50
2017-11-13T10:28:49.002Z,12.30
2017-11-13T10:31:15.351Z,10.67
2017-11-13T10:33:41.713Z,9.70
2017-11-13T10:36:08.094Z,10.33
2017-11-13T10:38:34.428Z,10.43
2017-11-13T10:41:00.955Z,8.57
2017-11-13T10:43:27.374Z,9.23
2017-11-13T10:45:53.929Z,10.27
2017-11-13T10:48:21.116Z,11.13
2017-11-13T10:50:47.547Z,9.43
2017-11-13T10:53:14.747Z,8.87
2017-11-13T10:55:41.153Z,8.13
2017-11-13T10:58:07.571Z,8.83
2017-11-13T11:00:34.711Z,9.97
2017-11-13T11:03:01.888Z,11.03
2017-11-13T11:05:29.107Z,9.37
2017-11-13T11:07:55.549Z,9.63
2017-11-13T11:10:22.759Z,8.43
2017-11-13T11:12:49.247Z,7.23
2017-11-13T11:15:15.815Z,8.53
2017-11-13T11:17:46.353Z,7.63
2017-11-13T11:20:31.633Z,6.63
2017-11-13T11:22:58.894Z,6.90
2017-11-13T11:25:26.173Z,6.90
2017-11-13T11:27:52.529Z,8.23
2017-11-13T11:30:35.528Z,7.27
2017-11-13T11:33:08.104Z,7.90
2017-11-13T11:35:51.386Z,6.70
2017-11-13T11:38:17.807Z,7.10
2017-11-13T11:40:44.245Z,7.17
2017-11-13T11:43:10.729Z,5.37
2017-11-13T11:45:37.127Z,5.30
2017-11-13T11:48:18.414Z,6.70
2017-11-13T11:50:44.754Z,4.83
2017-11-13T11:53:11.130Z,4.60
2017-11-13T11:55:53.505Z,3.97
2017-11-13T11:58:20.087Z,5.67
2017-11-13T12:00:46.600Z,4.83
2017-11-13T12:03:12.992Z,3.53
2017-11-13T12:05:39.407Z,5.30
2017-11-13T12:08:05.808Z,4.40
2017-11-13T12:10:32.182Z,4.17
2017-11-13T12:12:58.738Z,4.47
2017-11-13T12:15:25.910Z,4.93
2017-11-13T12:17:52.372Z,4.63
2017-11-13T12:20:18.722Z,4.40
2017-11-13T12:22:45.126Z,3.90
2017-11-13T12:25:11.506Z,5.03
2017-11-13T12:27:37.908Z,4.23
2017-11-13T12:30:04.384Z,6.07
2017-11-13T12:32:31.503Z,3.50
2017-11-13T12:34:57.865Z,4.43
2017-11-13T12:37:24.273Z,2.30
2017-11-13T12:39:51.752Z,3.20
2017-11-13T12:42:18.324Z,2.67
2017-11-13T12:44:45.719Z,3.07
2017-11-13T12:47:12.239Z,2.40
2017-11-13T12:49:39.092Z,2.90
2017-11-13T12:52:05.539Z,3.00
2017-11-13T12:54:31.973Z,2.50
2017-11-13T12:56:58.418Z,1.73
2017-11-13T12:59:24.852Z,2.90
2017-11-13T13:01:51.231Z,1.87
2017-11-13T13:04:17.643Z,2.57
2017-11-13T13:06:44.749Z,4.07
2017-11-13T13:09:11.125Z,2.80
2017-11-13T13:11:37.482Z,1.97
2017-11-13T13:14:03.897Z,1.63
2017-11-13T13:16:30.249Z,2.07
2017-11-13T13:18:56.632Z,2.00
2017-11-13T13:21:23.037Z,2.37
2017-11-13T13:23:50.905Z,4.50
2017-11-13T13:26:17.299Z,2.83
2017-11-13T13:28:43.658Z,3.83
2017-11-13T13:31:10.044Z,1.80
2017-11-13T13:33:37.166Z,2.73
2017-11-13T13:36:03.554Z,5.00
2017-11-13T13:38:30.029Z,3.90
2017-11-13T13:40:57.141Z,2.23
2017-11-13T13:43:23.613Z,2.00
2017-11-13T13:45:50.052Z,2.83
2017-11-13T13:48:16.487Z,2.10
2017-11-13T13:50:43.568Z,3.30
2017-11-13T13:53:09.952Z,4.00
2017-11-13T13:55:36.272Z,2.13
2017-11-13T13:58:02.670Z,3.47
2017-11-13T14:00:29.042Z,2.33
2017-11-13T14:02:55.391Z,1.83
2017-11-13T14:05:22.528Z,2.70
2017-11-13T14:07:48.875Z,2.10
2017-11-13T14:10:15.230Z,2.27
2017-11-13T14:12:41.648Z,3.70
2017-11-13T14:15:08.818Z,6.10
2017-11-13T14:17:35.310Z,2.67
2017-11-13T14:20:01.674Z,1.77
2017-11-13T14:22:28.071Z,2.37
2017-11-13T14:24:54.439Z,7.20
2017-11-13T14:27:20.816Z,1.80
2017-11-13T14:29:47.279Z,1.80
2017-11-13T14:32:13.620Z,1.17
2017-11-13T14:34:40.144Z,1.80
2017-11-13T14:37:06.741Z,1.70
2017-11-13T14:39:33.108Z,2.43
2017-11-13T14:42:00.308Z,3.83
2017-11-13T14:44:26.696Z,1.87
2017-11-13T14:46:53.811Z,2.77
2017-11-13T14:49:20.181Z,2.43
2017-11-13T14:51:47.436Z,3.33
2017-11-13T14:54:13.789Z,2.20
2017-11-13T14:56:40.182Z,1.93
2017-11-13T14:59:06.551Z,6.80
2017-11-13T15:01:33.693Z,2.20
2017-11-13T15:04:00.069Z,2.87
2017-11-13T15:06:26.449Z,3.20
2017-11-13T15:08:52.850Z,3.67
2017-11-13T15:11:19.973Z,1.73
2017-11-13T15:13:46.292Z,2.03
2017-11-13T15:16:12.686Z,3.10
2017-11-13T15:18:39.814Z,1.70
2017-11-13T15:21:07.063Z,3.70
2017-11-13T15:23:33.679Z,3.23
2017-11-13T15:26:00.062Z,3.13
2017-11-13T15:28:26.405Z,1.83
2017-11-13T15:30:52.777Z,1.50
2017-11-13T15:33:19.124Z,1.87
2017-11-13T15:35:45.466Z,3.30
2017-11-13T15:38:11.818Z,2.03
2017-11-13T15:40:38.878Z,1.80
2017-11-13T15:43:05.210Z,2.97
2017-11-13T15:45:31.514Z,1.13
2017-11-13T15:47:57.845Z,1.60
2017-11-13T15:50:24.200Z,2.50
2017-11-13T15:52:51.264Z,2.83
2017-11-13T15:55:17.575Z,2.90
2017-11-13T15:57:44.654Z,1.90
2017-11-13T16:00:10.967Z,2.40
2017-11-13T16:02:38.035Z,2.43
2017-11-13T16:05:04.449Z,1.50
2017-11-13T16:07:30.923Z,2.03
2017-11-13T16:09:58.117Z,3.37
2017-11-13T16:12:24.668Z,3.70
2017-11-13T16:14:51.267Z,5.80
2017-11-13T16:17:17.693Z,2.83
2017-11-13T16:19:44.797Z,1.70
2017-11-13T16:22:11.135Z,1.73
2017-11-13T16:24:37.478Z,2.67
2017-11-13T16:27:03.821Z,3.50
2017-11-13T16:29:30.208Z,1.47
2017-11-13T16:31:56.548Z,2.97
2017-11-13T16:34:22.879Z,1.60
2017-11-13T16:36:49.208Z,1.73
2017-11-13T16:39:15.540Z,2.40
2017-11-13T16:41:41.831Z,3.27
2017-11-13T16:44:08.922Z,2.80
2017-11-13T16:46:35.235Z,5.00
2017-11-13T16:49:01.525Z,3.80
2017-11-13T16:51:27.807Z,2.23
2017-11-13T16:53:54.113Z,3.60
2017-11-13T16:56:20.416Z,3.37
2017-11-13T16:58:46.724Z,2.87
2017-11-13T17:01:13.054Z,2.23
2017-11-13T17:03:39.351Z,3.13
2017-11-13T17:06:05.657Z,3.13
2017-11-13T17:08:31.971Z,3.97
2017-11-13T17:10:59.000Z,3.00
2017-11-13T17:13:25.300Z,7.60
2017-11-13T17:15:51.594Z,7.10
2017-11-13T17:18:18.616Z,5.70
2017-11-13T17:20:44.922Z,6.00
2017-11-13T17:23:11.219Z,6.53
2017-11-13T17:25:37.505Z,6.93
2017-11-13T17:28:03.804Z,6.27
2017-11-13T17:30:30.121Z,4.83
2017-11-13T17:32:56.395Z,4.53
2017-11-13T17:35:22.708Z,4.93
2017-11-13T17:37:49.018Z,4.13
2017-11-13T17:40:15.370Z,3.30
2017-11-13T17:42:42.462Z,3.17
2017-11-13T17:45:09.553Z,2.40
2017-11-13T17:47:35.869Z,3.77
2017-11-13T17:50:02.219Z,2.90
2017-11-13T17:52:28.527Z,3.60
2017-11-13T17:54:54.903Z,2.50
2017-11-13T17:57:21.295Z,4.07
2017-11-13T17:59:47.627Z,3.97
2017-11-13T18:02:14.039Z,5.10
2017-11-13T18:04:40.383Z,4.70
2017-11-13T18:07:06.708Z,4.53
2017-11-13T18:09:33.033Z,3.53
2017-11-13T18:11:59.327Z,5.60
2017-11-13T18:14:26.537Z,3.00
2017-11-13T18:16:52.882Z,3.50
2017-11-13T18:19:19.224Z,3.40
2017-11-13T18:21:45.567Z,3.57
2017-11-13T18:24:12.615Z,4.50
2017-11-13T18:26:39.675Z,3.70
2017-11-13T18:29:06.709Z,3.40
2017-11-13T18:31:33.092Z,4.50
2017-11-13T18:33:59.382Z,6.20
2017-11-13T18:36:25.751Z,4.87
2017-11-13T18:38:52.067Z,3.17
2017-11-13T18:41:18.413Z,3.80
2017-11-13T18:43:44.752Z,6.13
2017-11-13T18:46:11.057Z,4.90
2017-11-13T18:48:37.426Z,3.77
2017-11-13T18:51:03.942Z,4.23
2017-11-13T18:53:30.275Z,3.27
2017-11-13T18:55:56.585Z,3.20
2017-11-13T18:58:22.943Z,3.03
2017-11-13T19:00:49.266Z,3.70
2017-11-13T19:03:15.611Z,4.23
2017-11-13T19:05:41.952Z,3.53
2017-11-13T19:08:08.338Z,4.40
2017-11-13T19:10:34.654Z,3.20
2017-11-13T19:13:01.198Z,4.00
2017-11-13T19:15:27.541Z,5.03
2017-11-13T19:17:53.934Z,5.03
2017-11-13T19:20:20.986Z,6.43
2017-11-13T19:22:48.059Z,5.00
2017-11-13T19:25:14.805Z,13.70
2017-11-13T19:27:42.209Z,7.70
2017-11-13T19:30:09.295Z,7.53
2017-11-13T19:32:35.618Z,5.77
2017-11-13T19:35:02.015Z,5.40
2017-11-13T19:37:29.078Z,5.10
2017-11-13T19:39:56.147Z,8.20
2017-11-13T19:42:23.254Z,5.37
2017-11-13T19:44:49.573Z,5.63
2017-11-13T19:47:15.878Z,7.00
2017-11-13T19:49:42.194Z,6.70
2017-11-13T19:52:08.527Z,6.00
2017-11-13T19:54:34.872Z,6.43
2017-11-13T19:57:01.155Z,8.03
2017-11-13T19:59:28.234Z,8.83
2017-11-13T20:01:54.549Z,8.80
2017-11-13T20:04:20.856Z,7.07
2017-11-13T20:06:47.202Z,6.63
2017-11-13T20:09:14.266Z,7.27
2017-11-13T20:11:40.742Z,7.23
2017-11-13T20:14:07.066Z,7.40
2017-11-13T20:16:33.504Z,6.73
2017-11-13T20:18:59.823Z,5.77
2017-11-13T20:21:26.127Z,6.60
2017-11-13T20:23:52.466Z,7.10
2017-11-13T20:26:18.928Z,7.23
2017-11-13T20:28:45.272Z,7.43
2017-11-13T20:31:12.464Z,7.80
2017-11-13T20:33:38.802Z,7.67
2017-11-13T20:36:05.211Z,10.37
2017-11-13T20:38:31.669Z,8.63
2017-11-13T20:40:58.051Z,8.73
2017-11-13T20:43:24.383Z,15.83
2017-11-13T20:45:50.720Z,14.63
2017-11-13T20:48:17.037Z,10.63
2017-11-13T20:50:43.362Z,8.93
2017-11-13T20:53:09.647Z,9.23
2017-11-13T20:55:36.044Z,7.07
2017-11-13T20:58:02.514Z,7.37
2017-11-13T21:00:28.852Z,8.17
2017-11-13T21:02:55.212Z,8.80
2017-11-13T21:05:21.540Z,9.90
2017-11-13T21:07:47.853Z,8.10
2017-11-13T21:10:14.163Z,8.10
2017-11-13T21:12:40.459Z,8.20
2017-11-13T21:15:06.757Z,8.87
2017-11-13T21:17:33.054Z,7.83
2017-11-13T21:19:59.332Z,8.03
2017-11-13T21:22:25.754Z,8.43
2017-11-13T21:24:52.070Z,7.73
2017-11-13T21:27:18.381Z,7.80
2017-11-13T21:29:44.673Z,9.23
2017-11-13T21:32:11.740Z,7.03
2017-11-13T21:34:38.037Z,8.80
2017-11-13T21:37:04.415Z,8.20
2017-11-13T21:39:30.998Z,10.43
2017-11-13T21:41:57.795Z,9.17
2017-11-13T21:44:24.167Z,10.30
2017-11-13T21:46:50.459Z,10.93
2017-11-13T21:49:16.748Z,9.63
2017-11-13T21:51:43.779Z,9.53
2017-11-13T21:54:10.375Z,10.20
2017-11-13T21:56:36.661Z,10.00
2017-11-13T21:59:03.710Z,9.90
2017-11-13T22:01:30.744Z,11.37
2017-11-13T22:03:58.562Z,11.07
2017-11-13T22:06:24.856Z,10.70
2017-11-13T22:08:51.178Z,11.00
2017-11-13T22:11:18.941Z,13.27
2017-11-13T22:13:45.219Z,12.80
2017-11-13T22:16:11.523Z,12.57
2017-11-13T22:18:38.585Z,13.63
2017-11-13T22:21:04.911Z,12.83
2017-11-13T22:23:31.925Z,12.33
2017-11-13T22:25:58.220Z,12.87
2017-11-13T22:28:24.544Z,11.27
2017-11-13T22:30:52.728Z,12.70
2017-11-13T22:33:19.179Z,12.90
2017-11-13T22:35:45.468Z,14.80
2017-11-13T22:38:11.775Z,14.97
2017-11-13T22:40:39.607Z,14.40
2017-11-13T22:43:05.919Z,12.87
2017-11-13T22:45:32.274Z,14.03
2017-11-13T22:47:59.315Z,16.03
2017-11-13T22:50:27.132Z,13.03
2017-11-13T22:52:53.434Z,14.17
2017-11-13T22:55:20.469Z,16.23
2017-11-13T22:57:46.758Z,14.40
2017-11-13T23:00:13.058Z,14.50
2017-11-13T23:02:39.391Z,13.73
2017-11-13T23:05:05.730Z,13.67
2017-11-13T23:07:32.018Z,12.67
2017-11-13T23:09:59.787Z,13.87
2017-11-13T23:12:26.825Z,14.70
2017-11-13T23:14:53.112Z,12.80
2017-11-13T23:17:19.435Z,15.30
2017-11-13T23:19:45.718Z,13.33
2017-11-13T23:22:12.018Z,15.60
2017-11-13T23:24:38.317Z,14.93
2017-11-13T23:27:04.643Z,14.30
2017-11-13T23:29:30.949Z,14.23
2017-11-13T23:31:57.994Z,14.47
2017-11-13T23:34:25.027Z,19.13
2017-11-13T23:36:51.321Z,13.87
2017-11-13T23:39:17.634Z,14.90
2017-11-13T23:41:43.913Z,13.10
2017-11-13T23:44:10.209Z,13.73
2017-11-13T23:46:36.489Z,13.90
2017-11-13T23:49:02.806Z,13.37
2017-11-13T23:51:30.593Z,14.23
2017-11-13T23:53:56.902Z,11.90
2017-11-13T23:56:23.959Z,14.23
2017-11-13T23:58:51.010Z,13.37
